Time;durP1;ratioP1;P1;durP2;ratioP2;P2;SDS_P1;SDS_P2;PMS_P1;PMS_P2;Temp;Humidity;BMP_temperature;BMP_pressure;BME280_temperature;BME280_humidity;BME280_pressure;Samples;Min_cycle;Max_cycle;Signal;HPM_P1;HPM_P2
2023/10/24 00:00:56;;;;;;;2.67;2.20;;;11.60;99.90;;;;;;5074789;28;20488;-84
2023/10/24 00:03:22;;;;;;;2.63;2.43;;;11.60;99.90;;;;;;5074888;28;20489;-84
2023/10/24 00:05:51;;;;;;;3.70;1.87;;;11.60;99.90;;;;;;5074679;28;20433;-83
2023/10/24 00:08:18;;;;;;;2.17;1.97;;;11.60;99.90;;;;;;5074914;28;20954;-84
2023/10/24 00:10:45;;;;;;;3.27;1.60;;;11.70;99.90;;;;;;5078279;28;20456;-83
2023/10/24 00:13:13;;;;;;;2.23;1.50;;;11.60;99.90;;;;;;5081418;28;20453;-84
2023/10/24 00:15:40;;;;;;;3.23;2.50;;;11.60;99.90;;;;;;5074787;28;20478;-83
2023/10/24 00:18:07;;;;;;;3.07;2.33;;;11.70;99.90;;;;;;5074748;28;20441;-83
2023/10/24 00:20:34;;;;;;;2.50;1.93;;;11.70;99.90;;;;;;5074728;28;20506;-83
2023/10/24 00:23:00;;;;;;;2.00;1.77;;;11.70;99.90;;;;;;5074524;28;20469;-84
2023/10/24 00:25:27;;;;;;;9.10;1.87;;;11.60;99.90;;;;;;5073777;28;20445;-83
2023/10/24 00:27:54;;;;;;;3.97;2.33;;;11.60;99.90;;;;;;5074580;28;20441;-83
2023/10/24 00:30:22;;;;;;;4.50;1.80;;;11.70;99.90;;;;;;5074473;28;20820;-83
2023/10/24 00:32:49;;;;;;;2.10;1.90;;;11.60;99.90;;;;;;5074390;28;20460;-83
2023/10/24 00:35:17;;;;;;;2.90;2.20;;;11.70;99.90;;;;;;5074298;28;20445;-83
2023/10/24 00:37:43;;;;;;;2.73;1.90;;;11.60;99.90;;;;;;5074018;28;20444;-84
2023/10/24 00:40:11;;;;;;;2.57;2.10;;;11.60;99.90;;;;;;5074295;28;20503;-83
2023/10/24 00:42:38;;;;;;;4.20;2.27;;;11.70;99.90;;;;;;5074190;28;20441;-84
2023/10/24 00:45:06;;;;;;;3.97;2.63;;;11.70;99.90;;;;;;5074138;28;20491;-83
2023/10/24 00:47:34;;;;;;;4.07;2.17;;;11.70;99.90;;;;;;5074106;28;20448;-84
2023/10/24 00:50:02;;;;;;;2.80;1.50;;;11.60;99.90;;;;;;5073883;28;20445;-83
2023/10/24 00:52:29;;;;;;;2.37;2.17;;;11.60;99.90;;;;;;5073804;28;20766;-83
2023/10/24 00:54:57;;;;;;;1.40;1.30;;;11.60;99.90;;;;;;5074113;28;20437;-84
2023/10/24 00:57:24;;;;;;;5.03;2.10;;;11.50;99.90;;;;;;5074116;28;20472;-84
2023/10/24 00:59:51;;;;;;;2.80;2.00;;;11.50;99.90;;;;;;5073940;28;20444;-84
2023/10/24 01:02:19;;;;;;;1.87;1.77;;;11.50;99.90;;;;;;5074184;28;20433;-83
2023/10/24 01:04:48;;;;;;;2.23;2.00;;;11.50;99.90;;;;;;5073743;28;20495;-84
2023/10/24 01:07:15;;;;;;;2.20;2.03;;;11.60;99.90;;;;;;5073574;28;20826;-84
2023/10/24 01:09:42;;;;;;;2.50;1.80;;;11.60;99.90;;;;;;5073540;28;20949;-84
2023/10/24 01:12:09;;;;;;;1.87;1.60;;;11.70;99.90;;;;;;5073722;28;20449;-83
2023/10/24 01:14:36;;;;;;;2.87;1.93;;;11.70;99.90;;;;;;5073767;28;20459;-84
2023/10/24 01:17:10;;;;;;;2.10;2.00;;;11.70;99.90;;;;;;5073407;28;20459;-83
2023/10/24 01:19:37;;;;;;;2.50;1.83;;;11.70;99.90;;;;;;5073617;28;20420;-84
2023/10/24 01:22:05;;;;;;;1.63;1.40;;;11.70;99.90;;;;;;5073359;28;20433;-83
2023/10/24 01:24:32;;;;;;;2.97;2.47;;;11.70;99.90;;;;;;5073393;28;20484;-84
2023/10/24 01:26:59;;;;;;;2.37;2.17;;;11.70;99.90;;;;;;5073252;28;20547;-84
2023/10/24 01:29:26;;;;;;;1.30;1.17;;;11.70;99.90;;;;;;5073517;28;20445;-84
2023/10/24 01:31:53;;;;;;;1.90;1.77;;;11.70;99.90;;;;;;5073452;28;20447;-83
2023/10/24 01:34:20;;;;;;;1.63;1.47;;;11.70;99.90;;;;;;5073405;28;20465;-84
2023/10/24 01:36:46;;;;;;;2.93;2.00;;;11.70;99.90;;;;;;5073245;28;20441;-84
2023/10/24 01:39:15;;;;;;;2.30;1.50;;;11.70;99.90;;;;;;5073402;28;20444;-84
2023/10/24 01:41:42;;;;;;;2.73;1.77;;;11.60;99.90;;;;;;5073365;28;20445;-83
2023/10/24 01:44:09;;;;;;;1.60;1.50;;;11.70;99.90;;;;;;5073192;28;20488;-83
2023/10/24 01:46:35;;;;;;;1.57;1.23;;;11.70;99.90;;;;;;5073002;28;20963;-84
2023/10/24 01:49:02;;;;;;;3.43;2.60;;;11.80;99.90;;;;;;5073286;28;20444;-84
2023/10/24 01:51:29;;;;;;;2.17;1.50;;;11.80;99.90;;;;;;5072911;28;20576;-84
2023/10/24 01:53:56;;;;;;;1.57;1.40;;;11.80;99.90;;;;;;5073238;28;20457;-84
2023/10/24 01:56:24;;;;;;;3.40;2.37;;;11.70;99.90;;;;;;5072920;28;20449;-84
2023/10/24 01:58:51;;;;;;;2.00;1.43;;;11.80;99.90;;;;;;5072900;28;20452;-84
2023/10/24 02:01:18;;;;;;;1.90;1.20;;;11.80;99.90;;;;;;5073950;28;20447;-84
2023/10/24 02:03:44;;;;;;;1.93;1.43;;;11.70;99.90;;;;;;5072779;28;20459;-84
2023/10/24 02:06:11;;;;;;;6.30;1.70;;;11.80;99.90;;;;;;5073157;28;20448;-84
2023/10/24 02:08:38;;;;;;;2.13;1.60;;;11.70;99.90;;;;;;5073258;28;20440;-84
2023/10/24 02:11:05;;;;;;;4.73;2.03;;;11.80;99.90;;;;;;5073083;28;20464;-83
2023/10/24 02:13:33;;;;;;;2.07;1.47;;;11.80;99.90;;;;;;5072976;28;20465;-84
2023/10/24 02:15:59;;;;;;;1.63;1.43;;;11.80;99.90;;;;;;5073052;28;20452;-84
2023/10/24 02:18:26;;;;;;;2.53;2.00;;;11.70;99.90;;;;;;5072994;28;20441;-84
2023/10/24 02:20:53;;;;;;;1.93;1.60;;;11.70;99.90;;;;;;5072765;28;20470;-84
2023/10/24 02:23:20;;;;;;;5.77;1.60;;;11.70;99.90;;;;;;5072980;28;20460;-84
2023/10/24 02:25:47;;;;;;;1.43;1.33;;;11.70;99.90;;;;;;5072898;28;20489;-84
2023/10/24 02:28:13;;;;;;;1.53;1.43;;;11.70;99.90;;;;;;5072970;28;20445;-84
2023/10/24 02:30:42;;;;;;;7.00;1.30;;;11.70;99.90;;;;;;5072928;28;20445;-84
2023/10/24 02:33:08;;;;;;;1.53;1.43;;;11.70;99.90;;;;;;5072544;28;20969;-84
2023/10/24 02:35:35;;;;;;;4.40;1.53;;;11.70;99.90;;;;;;5072551;28;20968;-84
2023/10/24 02:38:02;;;;;;;1.30;1.20;;;11.60;99.90;;;;;;5074992;28;20436;-84
2023/10/24 02:40:29;;;;;;;1.50;1.10;;;11.60;99.90;;;;;;5072776;28;20449;-84
2023/10/24 02:42:55;;;;;;;1.20;1.10;;;11.70;99.90;;;;;;5072775;28;20461;-84
2023/10/24 02:45:23;;;;;;;2.80;1.73;;;11.70;99.90;;;;;;5072550;28;20487;-84
2023/10/24 02:47:51;;;;;;;2.47;1.43;;;11.80;99.90;;;;;;5072458;28;20455;-85
2023/10/24 02:50:18;;;;;;;1.67;1.50;;;11.80;99.90;;;;;;5075199;28;20483;-84
2023/10/24 02:52:45;;;;;;;2.87;1.30;;;11.70;99.90;;;;;;5076008;28;20449;-84
2023/10/24 02:55:12;;;;;;;2.40;1.33;;;11.80;99.90;;;;;;5076359;28;20440;-84
2023/10/24 02:57:39;;;;;;;2.10;1.60;;;11.80;99.90;;;;;;5076310;28;20455;-84
2023/10/24 03:00:07;;;;;;;0.87;0.87;;;11.80;99.90;;;;;;5076299;28;20440;-85
2023/10/24 03:02:34;;;;;;;1.67;1.43;;;11.80;99.90;;;;;;5075880;28;20441;-84
2023/10/24 03:05:02;;;;;;;1.43;1.00;;;11.90;99.90;;;;;;5076033;28;20843;-84
2023/10/24 03:07:29;;;;;;;2.53;1.37;;;11.90;99.90;;;;;;5076148;28;20445;-84
2023/10/24 03:09:56;;;;;;;1.37;1.00;;;11.90;99.90;;;;;;5076074;28;20444;-84
2023/10/24 03:12:22;;;;;;;2.40;1.33;;;12.00;99.90;;;;;;5076011;28;20436;-84
2023/10/24 03:14:49;;;;;;;3.30;1.17;;;12.00;99.90;;;;;;5075917;28;20551;-84
2023/10/24 03:17:16;;;;;;;1.57;1.00;;;12.00;99.90;;;;;;5075978;28;20437;-84
2023/10/24 03:19:43;;;;;;;1.03;0.90;;;12.00;99.90;;;;;;5075898;28;20451;-84
2023/10/24 03:22:11;;;;;;;0.80;0.80;;;12.10;99.90;;;;;;5075907;28;20443;-84
2023/10/24 03:24:37;;;;;;;0.70;0.70;;;12.10;99.90;;;;;;5075409;28;20491;-84
2023/10/24 03:27:05;;;;;;;1.03;0.80;;;12.10;99.90;;;;;;5075791;28;20444;-84
2023/10/24 03:29:35;;;;;;;0.70;0.70;;;12.10;99.90;;;;;;5075706;28;20436;-84
2023/10/24 03:32:02;;;;;;;1.33;1.03;;;12.10;99.90;;;;;;5075773;28;20433;-84
2023/10/24 03:34:30;;;;;;;1.10;0.80;;;12.20;99.90;;;;;;5075546;28;20461;-84
2023/10/24 03:36:56;;;;;;;0.90;0.70;;;12.10;99.90;;;;;;5075271;28;20969;-84
2023/10/24 03:39:25;;;;;;;2.07;1.40;;;12.20;99.90;;;;;;5075560;28;20436;-84
2023/10/24 03:41:52;;;;;;;2.50;0.90;;;12.20;99.90;;;;;;5075197;28;20448;-84
2023/10/24 03:44:18;;;;;;;2.60;1.10;;;12.20;99.90;;;;;;5074945;28;20982;-84
2023/10/24 03:46:45;;;;;;;1.10;1.00;;;12.20;99.90;;;;;;5075072;28;20934;-84
2023/10/24 03:49:12;;;;;;;1.00;0.93;;;12.20;99.90;;;;;;5075131;28;20973;-84
2023/10/24 03:51:39;;;;;;;5.23;1.17;;;12.20;99.90;;;;;;5074826;28;20477;-84
2023/10/24 03:54:06;;;;;;;1.90;1.20;;;12.20;99.90;;;;;;5075158;28;20460;-84
2023/10/24 03:56:35;;;;;;;1.63;1.47;;;12.10;99.90;;;;;;5074929;28;20794;-84
2023/10/24 03:59:02;;;;;;;2.30;1.20;;;12.10;99.90;;;;;;5075282;28;20452;-84
2023/10/24 04:01:29;;;;;;;1.30;1.10;;;12.10;99.90;;;;;;5075080;28;20440;-84
2023/10/24 04:03:56;;;;;;;1.13;0.60;;;12.10;99.90;;;;;;5074700;28;20977;-84
2023/10/24 04:06:22;;;;;;;0.90;0.60;;;12.10;99.90;;;;;;5074584;28;21009;-84
2023/10/24 04:08:49;;;;;;;1.30;0.70;;;12.10;99.90;;;;;;5074966;28;20445;-84
2023/10/24 04:11:17;;;;;;;0.97;0.63;;;12.10;99.90;;;;;;5074928;28;20807;-84
2023/10/24 04:13:46;;;;;;;0.70;0.60;;;12.20;99.90;;;;;;5074803;28;20559;-84
2023/10/24 04:16:14;;;;;;;0.87;0.63;;;12.20;99.90;;;;;;5074809;28;20467;-84
2023/10/24 04:18:41;;;;;;;0.87;0.80;;;12.20;99.90;;;;;;5074803;28;20527;-84
2023/10/24 04:21:07;;;;;;;1.67;0.90;;;12.20;99.90;;;;;;5074449;28;20441;-84
2023/10/24 04:23:35;;;;;;;0.70;0.70;;;12.30;99.90;;;;;;5074345;28;20847;-84
2023/10/24 04:26:05;;;;;;;0.60;0.60;;;12.30;99.90;;;;;;5074264;28;20476;-84
2023/10/24 04:28:32;;;;;;;8.53;1.13;;;12.30;99.90;;;;;;5074818;28;20437;-84
2023/10/24 04:31:00;;;;;;;3.70;1.27;;;12.30;99.90;;;;;;5074610;28;20448;-84
2023/10/24 04:33:27;;;;;;;4.10;1.10;;;12.30;99.90;;;;;;5074233;28;20480;-84
2023/10/24 04:35:54;;;;;;;2.97;1.03;;;12.30;99.90;;;;;;5074084;28;20441;-84
2023/10/24 04:38:21;;;;;;;1.33;1.10;;;12.30;99.90;;;;;;5074387;28;20452;-84
2023/10/24 04:40:51;;;;;;;0.80;0.80;;;12.30;99.90;;;;;;5074336;28;20822;-84
2023/10/24 04:43:18;;;;;;;1.83;0.80;;;12.30;99.90;;;;;;5074210;28;20461;-84
2023/10/24 04:45:45;;;;;;;2.20;1.00;;;12.40;99.90;;;;;;5074122;28;20492;-84
2023/10/24 04:48:13;;;;;;;2.47;0.73;;;12.30;99.90;;;;;;5074188;28;20445;-84
2023/10/24 04:50:40;;;;;;;0.70;0.70;;;12.40;99.90;;;;;;5073613;28;20993;-84
2023/10/24 04:53:07;;;;;;;1.00;1.00;;;12.40;99.90;;;;;;5074051;28;20473;-84
2023/10/24 04:55:35;;;;;;;2.10;0.90;;;12.40;99.90;;;;;;5073844;28;20433;-84
2023/10/24 04:58:17;;;;;;;0.80;0.80;;;12.40;99.90;;;;;;5061789;28;20449;-84
2023/10/24 05:00:43;;;;;;;0.97;0.77;;;12.40;99.90;;;;;;5073596;28;20935;-84
2023/10/24 05:03:10;;;;;;;0.70;0.70;;;12.40;99.90;;;;;;5073871;28;20461;-84
2023/10/24 05:05:38;;;;;;;0.90;0.70;;;12.30;99.90;;;;;;5073552;28;20495;-84
2023/10/24 05:08:10;;;;;;;0.80;0.60;;;12.40;99.90;;;;;;5073937;28;20451;-84
2023/10/24 05:10:36;;;;;;;1.73;0.90;;;12.40;99.90;;;;;;5073832;28;20433;-84
2023/10/24 05:13:03;;;;;;;4.83;0.80;;;12.40;99.90;;;;;;5072953;28;20977;-84
2023/10/24 05:15:31;;;;;;;0.83;0.80;;;12.40;99.90;;;;;;5074050;28;20448;-84
2023/10/24 05:17:58;;;;;;;1.00;0.90;;;12.50;99.90;;;;;;5073606;28;20453;-84
2023/10/24 05:20:25;;;;;;;2.53;1.30;;;12.50;99.90;;;;;;5073352;28;20433;-84
2023/10/24 05:22:53;;;;;;;0.97;0.97;;;12.50;99.90;;;;;;5073572;28;20453;-84
2023/10/24 05:25:19;;;;;;;0.70;0.70;;;12.50;99.90;;;;;;5073486;28;20476;-83
2023/10/24 05:27:46;;;;;;;1.23;1.10;;;12.50;99.90;;;;;;5073513;28;20449;-84
2023/10/24 05:30:13;;;;;;;2.70;1.00;;;12.40;99.90;;;;;;5073701;28;20445;-84
2023/10/24 05:32:40;;;;;;;1.00;1.00;;;12.50;99.90;;;;;;5073091;28;21031;-84
2023/10/24 05:35:07;;;;;;;1.67;1.10;;;12.50;99.90;;;;;;5073539;28;20820;-84
2023/10/24 05:37:34;;;;;;;1.40;1.00;;;12.40;99.90;;;;;;5073418;28;20451;-84
2023/10/24 05:40:03;;;;;;;2.27;1.00;;;12.40;99.90;;;;;;5073541;28;20449;-84
2023/10/24 05:42:30;;;;;;;0.87;0.80;;;12.40;99.90;;;;;;5073022;28;20990;-84
2023/10/24 05:44:56;;;;;;;1.83;0.80;;;12.40;99.90;;;;;;5072985;28;20440;-84
2023/10/24 05:47:23;;;;;;;0.60;0.60;;;12.40;99.90;;;;;;5073367;28;20448;-84
2023/10/24 05:49:50;;;;;;;0.77;0.77;;;12.40;99.90;;;;;;5073062;28;20453;-84
2023/10/24 05:52:17;;;;;;;4.73;1.10;;;12.40;99.90;;;;;;5073269;28;20433;-84
2023/10/24 05:54:44;;;;;;;0.70;0.70;;;12.40;99.90;;;;;;5072923;28;20460;-84
2023/10/24 05:57:12;;;;;;;2.53;0.90;;;12.40;99.90;;;;;;5073246;28;20449;-84
2023/10/24 05:59:39;;;;;;;1.00;0.70;;;12.40;99.90;;;;;;5072903;28;20948;-84
2023/10/24 06:02:06;;;;;;;0.60;0.50;;;12.50;99.90;;;;;;5072878;28;20523;-84
2023/10/24 06:04:34;;;;;;;0.70;0.70;;;12.50;99.90;;;;;;5072770;28;20841;-84
2023/10/24 06:07:01;;;;;;;4.77;1.00;;;12.50;99.90;;;;;;5073080;28;20484;-84
2023/10/24 06:09:28;;;;;;;2.60;1.07;;;12.50;99.90;;;;;;5073173;28;20445;-84
2023/10/24 06:11:55;;;;;;;0.60;0.60;;;12.50;99.90;;;;;;5072796;28;20449;-84
2023/10/24 06:14:23;;;;;;;0.60;0.60;;;12.50;99.90;;;;;;5073048;28;20457;-84
2023/10/24 06:16:49;;;;;;;3.57;0.50;;;12.50;99.90;;;;;;5072768;28;20444;-83
2023/10/24 06:19:16;;;;;;;0.87;0.50;;;12.50;99.90;;;;;;5073486;28;20441;-84
2023/10/24 06:21:43;;;;;;;0.60;0.50;;;12.60;99.90;;;;;;5073034;28;20443;-84
2023/10/24 06:24:10;;;;;;;0.87;0.70;;;12.60;99.90;;;;;;5074092;28;20460;-84
2023/10/24 06:26:36;;;;;;;1.03;0.80;;;12.60;99.90;;;;;;5076825;28;20628;-84
2023/10/24 06:29:03;;;;;;;1.10;0.70;;;12.60;99.90;;;;;;5076914;28;20452;-83
2023/10/24 06:31:31;;;;;;;1.53;0.70;;;12.70;99.90;;;;;;5076865;28;20437;-84
2023/10/24 06:33:59;;;;;;;0.50;0.50;;;12.70;99.90;;;;;;5076650;28;20468;-84
2023/10/24 06:36:26;;;;;;;1.17;0.70;;;12.70;99.90;;;;;;5076719;28;20520;-83
2023/10/24 06:38:53;;;;;;;1.77;0.90;;;12.70;99.90;;;;;;5076637;28;20449;-84
2023/10/24 06:41:20;;;;;;;0.60;0.60;;;12.70;99.90;;;;;;5076576;28;20453;-84
2023/10/24 06:43:47;;;;;;;0.60;0.60;;;12.70;99.90;;;;;;5076222;28;20993;-84
2023/10/24 06:46:13;;;;;;;0.70;0.60;;;12.70;99.90;;;;;;5076408;28;20484;-83
2023/10/24 06:48:42;;;;;;;1.07;0.70;;;12.60;99.90;;;;;;5076472;28;20429;-84
2023/10/24 06:51:08;;;;;;;0.70;0.70;;;12.60;99.90;;;;;;5076105;28;20477;-84
2023/10/24 06:53:35;;;;;;;1.20;0.80;;;12.60;99.90;;;;;;5076280;28;20469;-84
2023/10/24 06:56:02;;;;;;;1.50;0.90;;;12.60;99.90;;;;;;5076481;28;20440;-84
2023/10/24 06:58:29;;;;;;;0.70;0.70;;;12.50;99.90;;;;;;5076297;28;20452;-84
2023/10/24 07:00:56;;;;;;;2.20;0.83;;;12.50;99.90;;;;;;5076182;28;20445;-84
2023/10/24 07:03:23;;;;;;;1.47;0.90;;;12.50;99.90;;;;;;5076160;28;20476;-84
2023/10/24 07:05:52;;;;;;;1.10;0.90;;;12.50;99.90;;;;;;5076137;28;20481;-84
2023/10/24 07:08:19;;;;;;;1.57;1.47;;;12.40;99.90;;;;;;5076114;28;20449;-84
2023/10/24 07:10:46;;;;;;;6.63;1.10;;;12.40;99.90;;;;;;5076048;28;20448;-84
2023/10/24 07:13:12;;;;;;;1.30;1.07;;;12.40;99.90;;;;;;5076069;28;20468;-84
2023/10/24 07:15:39;;;;;;;1.10;0.93;;;12.30;99.90;;;;;;5075691;28;20451;-84
2023/10/24 07:18:06;;;;;;;3.80;1.10;;;12.30;99.90;;;;;;5076015;28;20457;-84
2023/10/24 07:20:35;;;;;;;1.10;1.00;;;12.30;99.90;;;;;;5075873;28;20456;-84
2023/10/24 07:23:04;;;;;;;1.47;1.30;;;12.30;99.90;;;;;;5075519;28;20456;-84
2023/10/24 07:25:31;;;;;;;1.03;0.73;;;12.30;99.90;;;;;;5075773;28;20852;-84
2023/10/24 07:27:58;;;;;;;2.07;1.10;;;12.30;99.90;;;;;;5075831;28;20440;-84
2023/10/24 07:30:24;;;;;;;0.93;0.93;;;12.30;99.90;;;;;;5075437;28;20445;-84
2023/10/24 07:32:53;;;;;;;1.80;0.90;;;12.30;99.90;;;;;;5075560;28;20469;-84
2023/10/24 07:35:21;;;;;;;1.10;0.93;;;12.30;99.90;;;;;;5074937;28;20453;-84
2023/10/24 07:37:48;;;;;;;1.10;0.90;;;12.20;99.90;;;;;;5075250;28;20445;-84
2023/10/24 07:40:16;;;;;;;0.80;0.80;;;12.30;99.90;;;;;;5075247;28;20973;-84
2023/10/24 07:42:43;;;;;;;2.77;0.90;;;12.30;99.90;;;;;;5075389;28;20449;-84
2023/10/24 07:45:11;;;;;;;0.80;0.80;;;12.30;99.90;;;;;;5075424;28;20448;-83
2023/10/24 07:47:38;;;;;;;3.60;0.73;;;12.30;99.90;;;;;;5075367;28;20481;-83
2023/10/24 07:50:06;;;;;;;0.90;0.70;;;12.30;99.90;;;;;;5075023;28;20464;-83
2023/10/24 07:52:32;;;;;;;1.07;0.70;;;12.30;99.90;;;;;;5074972;28;20943;-83
2023/10/24 07:54:59;;;;;;;6.73;0.57;;;12.30;99.90;;;;;;5074923;28;20445;-83
2023/10/24 07:57:29;;;;;;;3.80;0.70;;;12.30;99.90;;;;;;5074975;28;20436;-83
2023/10/24 07:59:55;;;;;;;3.03;0.67;;;12.30;99.90;;;;;;5075214;28;20463;-83
2023/10/24 08:02:22;;;;;;;0.70;0.70;;;12.30;99.90;;;;;;5075071;28;20437;-83
2023/10/24 08:04:49;;;;;;;0.80;0.73;;;12.30;99.90;;;;;;5074735;28;20839;-83
2023/10/24 08:07:15;;;;;;;1.27;1.03;;;12.30;99.90;;;;;;5078668;28;20489;-83
2023/10/24 08:09:42;;;;;;;1.03;0.73;;;12.20;99.90;;;;;;5078560;28;20435;-83
2023/10/24 08:12:10;;;;;;;3.57;1.17;;;12.20;99.90;;;;;;5074886;28;20455;-84
2023/10/24 08:14:38;;;;;;;2.20;0.80;;;12.20;99.90;;;;;;5074734;28;20472;-84
2023/10/24 08:17:05;;;;;;;2.10;0.97;;;12.20;99.90;;;;;;5075087;28;20432;-84
2023/10/24 08:19:32;;;;;;;1.03;1.03;;;12.10;99.90;;;;;;5074810;28;20477;-81
2023/10/24 08:21:58;;;;;;;1.93;0.80;;;12.10;99.90;;;;;;5074690;28;20456;-81
2023/10/24 08:24:25;;;;;;;1.57;1.10;;;12.00;99.90;;;;;;5074627;28;20835;-80
2023/10/24 08:26:52;;;;;;;0.60;0.53;;;12.10;99.90;;;;;;5074545;28;20483;-81
2023/10/24 08:29:18;;;;;;;1.00;0.83;;;12.10;99.90;;;;;;5074489;28;20441;-81
2023/10/24 08:31:47;;;;;;;0.90;0.87;;;12.10;99.90;;;;;;5074199;28;20957;-81
2023/10/24 08:34:14;;;;;;;0.80;0.80;;;12.10;99.90;;;;;;5074353;28;20465;-81
2023/10/24 08:36:41;;;;;;;1.50;0.73;;;12.10;99.90;;;;;;5074403;28;20508;-80
2023/10/24 08:39:08;;;;;;;0.90;0.60;;;12.10;99.90;;;;;;5074367;28;20444;-81
2023/10/24 08:41:35;;;;;;;3.03;1.27;;;12.00;99.90;;;;;;5074419;28;20808;-80
2023/10/24 08:44:03;;;;;;;0.50;0.50;;;12.10;99.90;;;;;;5074253;28;20491;-81
2023/10/24 08:46:30;;;;;;;1.30;1.13;;;12.10;99.90;;;;;;5073035;28;20472;-82
2023/10/24 08:49:00;;;;;;;1.97;1.33;;;12.00;99.90;;;;;;5073830;28;20934;-81
2023/10/24 08:51:27;;;;;;;2.07;1.53;;;12.10;99.90;;;;;;5073793;28;20472;-81
2023/10/24 08:53:54;;;;;;;1.50;1.03;;;12.10;99.90;;;;;;5073722;28;20473;-81
2023/10/24 08:56:20;;;;;;;1.77;1.30;;;12.10;99.90;;;;;;5074021;28;20444;-81
2023/10/24 08:58:49;;;;;;;1.63;1.20;;;12.10;99.90;;;;;;5074004;28;20452;-81
2023/10/24 09:01:16;;;;;;;1.03;1.00;;;12.10;99.90;;;;;;5074143;28;20972;-84
2023/10/24 09:03:43;;;;;;;0.80;0.60;;;12.20;99.90;;;;;;5074388;28;20491;-84
2023/10/24 09:06:12;;;;;;;5.70;1.00;;;12.10;99.90;;;;;;5074652;28;20484;-85
2023/10/24 09:08:39;;;;;;;2.07;1.20;;;12.10;99.90;;;;;;5074657;28;20441;-84
2023/10/24 09:11:06;;;;;;;2.17;0.97;;;12.10;99.90;;;;;;5073543;28;20819;-84
2023/10/24 09:13:34;;;;;;;1.90;1.30;;;12.10;99.90;;;;;;5074051;28;20469;-84
2023/10/24 09:16:08;;;;;;;2.63;1.13;;;12.10;99.90;;;;;;5074113;28;20430;-84
2023/10/24 09:18:36;;;;;;;2.10;1.37;;;12.10;99.90;;;;;;5075804;28;20463;-84
2023/10/24 09:21:05;;;;;;;0.80;0.80;;;12.10;99.90;;;;;;5075937;28;20428;-84
2023/10/24 09:23:35;;;;;;;1.10;0.90;;;12.20;99.90;;;;;;5077647;28;20589;-85
2023/10/24 09:26:03;;;;;;;1.03;0.80;;;12.20;99.90;;;;;;5077851;28;20433;-84
2023/10/24 09:28:30;;;;;;;0.70;0.70;;;12.20;99.90;;;;;;5074996;28;20470;-85
2023/10/24 09:30:58;;;;;;;2.10;0.90;;;12.20;99.90;;;;;;5073944;28;20460;-83
2023/10/24 09:33:26;;;;;;;0.87;0.87;;;12.20;99.90;;;;;;5074793;28;20464;-84
2023/10/24 09:35:53;;;;;;;2.00;0.90;;;12.30;99.90;;;;;;5073739;28;20448;-84
2023/10/24 09:38:21;;;;;;;0.60;0.50;;;12.40;99.90;;;;;;5074715;28;20445;-84
2023/10/24 09:40:49;;;;;;;0.40;0.40;;;12.30;99.90;;;;;;5075913;28;20495;-84
2023/10/24 09:43:20;;;;;;;1.77;0.60;;;12.20;99.90;;;;;;5073735;28;20514;-81
2023/10/24 09:45:48;;;;;;;0.50;0.50;;;12.30;99.90;;;;;;5073392;28;20425;-81
2023/10/24 09:48:16;;;;;;;0.40;0.40;;;12.40;99.90;;;;;;5073226;28;20491;-80
2023/10/24 09:50:43;;;;;;;2.60;0.80;;;12.40;99.90;;;;;;5072888;28;20988;-81
2023/10/24 09:53:12;;;;;;;0.47;0.47;;;12.30;99.90;;;;;;5072797;28;21011;-80
2023/10/24 09:55:41;;;;;;;0.83;0.57;;;12.40;99.90;;;;;;5072884;28;20937;-81
2023/10/24 09:58:10;;;;;;;1.63;0.50;;;12.40;99.90;;;;;;5075229;28;20856;-80
2023/10/24 10:00:37;;;;;;;0.67;0.40;;;12.40;99.90;;;;;;5079558;28;20546;-80
2023/10/24 10:03:05;;;;;;;0.40;0.40;;;12.50;99.90;;;;;;5079469;28;21054;-80
2023/10/24 10:05:32;;;;;;;0.70;0.63;;;12.40;99.90;;;;;;5079774;28;20444;-80
2023/10/24 10:08:02;;;;;;;0.97;0.60;;;12.40;99.90;;;;;;5079667;28;20492;-80
2023/10/24 10:10:30;;;;;;;0.50;0.50;;;12.40;99.90;;;;;;5079804;28;20437;-79
2023/10/24 10:13:02;;;;;;;1.57;0.60;;;12.40;99.90;;;;;;5079364;28;20471;-80
2023/10/24 10:15:55;;;;;;;0.50;0.50;;;12.40;99.90;;;;;;5079421;28;20931;-80
2023/10/24 10:18:37;;;;;;;0.63;0.50;;;12.40;99.90;;;;;;5080489;28;20758;-80
2023/10/24 10:21:23;;;;;;;1.10;0.60;;;12.40;99.90;;;;;;5079705;28;20431;-80
2023/10/24 10:24:16;;;;;;;2.03;0.57;;;12.40;99.90;;;;;;5079575;28;20471;-80
2023/10/24 10:27:04;;;;;;;0.50;0.50;;;12.30;99.90;;;;;;5079273;28;20976;-80
2023/10/24 10:29:44;;;;;;;0.83;0.60;;;12.30;99.90;;;;;;5079626;28;20425;-80
2023/10/24 10:32:23;;;;;;;1.23;1.13;;;12.30;99.90;;;;;;5079580;28;20455;-79
2023/10/24 10:34:51;;;;;;;1.43;0.90;;;12.30;99.90;;;;;;5079180;28;21007;-80
2023/10/24 10:37:18;;;;;;;1.20;0.90;;;12.40;99.90;;;;;;5079232;28;20502;-79
2023/10/24 10:40:23;;;;;;;1.17;0.60;;;12.30;99.90;;;;;;5079189;28;20806;-80
2023/10/24 10:42:51;;;;;;;1.93;0.70;;;12.30;99.90;;;;;;5079082;28;20468;-79
2023/10/24 10:45:25;;;;;;;2.43;0.60;;;12.30;99.90;;;;;;5079150;28;20941;-79
2023/10/24 10:47:56;;;;;;;0.60;0.50;;;12.30;99.90;;;;;;5079388;28;20479;-79
2023/10/24 10:50:25;;;;;;;0.70;0.60;;;12.30;99.90;;;;;;5079113;28;20480;-79
2023/10/24 10:53:02;;;;;;;1.43;0.90;;;12.30;99.90;;;;;;5079377;28;20806;-79
2023/10/24 10:55:45;;;;;;;0.97;0.80;;;12.40;99.90;;;;;;5079092;28;20913;-80
2023/10/24 10:58:22;;;;;;;0.93;0.93;;;12.30;99.90;;;;;;5079401;28;20785;-79
2023/10/24 11:01:11;;;;;;;0.40;0.40;;;12.30;99.90;;;;;;5079438;28;20481;-79
2023/10/24 11:03:42;;;;;;;0.60;0.60;;;12.20;99.90;;;;;;5078961;28;20464;-80
2023/10/24 11:06:14;;;;;;;0.60;0.50;;;12.30;99.90;;;;;;5079294;28;20425;-79
2023/10/24 11:08:42;;;;;;;0.90;0.50;;;12.20;99.90;;;;;;5079235;28;20473;-79
2023/10/24 11:11:10;;;;;;;0.50;0.50;;;12.30;99.90;;;;;;5075200;28;20444;-80
2023/10/24 11:13:42;;;;;;;1.13;0.80;;;12.30;99.90;;;;;;5076042;28;20457;-80
2023/10/24 11:16:10;;;;;;;1.17;1.07;;;12.30;99.90;;;;;;5076005;28;20448;-79
2023/10/24 11:18:41;;;;;;;0.50;0.50;;;12.40;99.90;;;;;;5075936;28;20441;-79
2023/10/24 11:21:09;;;;;;;0.40;0.40;;;12.30;99.90;;;;;;5075965;28;20421;-79
2023/10/24 11:23:37;;;;;;;1.27;0.50;;;12.40;99.90;;;;;;5075435;28;20468;-79
2023/10/24 11:26:04;;;;;;;0.50;0.40;;;12.30;99.90;;;;;;5075827;28;20452;-79
2023/10/24 11:28:32;;;;;;;1.27;0.80;;;12.40;99.90;;;;;;5075695;28;20988;-79
2023/10/24 11:30:59;;;;;;;0.80;0.80;;;12.40;99.90;;;;;;5075972;28;21001;-79
2023/10/24 11:33:27;;;;;;;0.80;0.60;;;12.30;99.90;;;;;;5075537;28;20473;-80
2023/10/24 11:35:55;;;;;;;0.73;0.70;;;12.30;99.90;;;;;;5075672;28;20453;-79
2023/10/24 11:38:21;;;;;;;1.23;0.97;;;12.40;99.90;;;;;;5075721;28;20437;-79
2023/10/24 11:40:48;;;;;;;1.40;0.97;;;12.40;99.90;;;;;;5075531;28;20451;-82
2023/10/24 11:43:17;;;;;;;0.70;0.70;;;12.40;99.90;;;;;;5075473;28;20531;-82
2023/10/24 11:45:45;;;;;;;1.33;1.10;;;12.40;99.90;;;;;;5075428;28;20447;-83
2023/10/24 11:48:12;;;;;;;0.80;0.63;;;12.40;99.90;;;;;;5075058;28;20481;-82
2023/10/24 11:50:44;;;;;;;0.63;0.53;;;12.40;99.90;;;;;;5074830;28;20502;-82
2023/10/24 11:53:19;;;;;;;0.70;0.70;;;12.40;99.90;;;;;;5075284;28;20465;-82
2023/10/24 11:55:47;;;;;;;0.97;0.60;;;12.50;99.90;;;;;;5075313;28;20425;-82
2023/10/24 11:58:14;;;;;;;1.10;0.63;;;12.40;99.90;;;;;;5075228;28;20448;-82
2023/10/24 12:00:41;;;;;;;2.90;0.80;;;12.40;99.90;;;;;;5075176;28;20445;-82
2023/10/24 12:03:08;;;;;;;0.87;0.63;;;12.40;99.90;;;;;;5074761;28;20835;-82
2023/10/24 12:05:36;;;;;;;0.90;0.50;;;12.40;99.90;;;;;;5074682;28;20440;-82
2023/10/24 12:08:04;;;;;;;1.33;0.63;;;12.40;99.90;;;;;;5074841;28;20511;-82
2023/10/24 12:10:33;;;;;;;1.30;0.50;;;12.40;99.90;;;;;;5074642;28;20449;-82
2023/10/24 12:13:04;;;;;;;2.03;0.60;;;12.50;99.90;;;;;;5074828;28;20465;-82
2023/10/24 12:15:31;;;;;;;1.30;0.60;;;12.50;99.90;;;;;;5074690;28;21004;-82
2023/10/24 12:18:04;;;;;;;0.60;0.60;;;12.50;99.90;;;;;;5074860;28;20452;-82
2023/10/24 12:20:31;;;;;;;0.60;0.60;;;12.40;99.90;;;;;;5074756;28;20456;-83
2023/10/24 12:22:58;;;;;;;0.40;0.40;;;12.40;99.90;;;;;;5073227;28;20884;-82
2023/10/24 12:25:25;;;;;;;0.87;0.60;;;12.40;99.90;;;;;;5074370;28;20452;-82
2023/10/24 12:27:53;;;;;;;1.00;0.50;;;12.40;99.90;;;;;;5074562;28;20488;-80
2023/10/24 12:30:20;;;;;;;0.77;0.63;;;12.40;99.90;;;;;;5074585;28;20441;-79
2023/10/24 12:32:47;;;;;;;0.50;0.50;;;12.40;99.90;;;;;;5074463;28;20490;-80
2023/10/24 12:35:13;;;;;;;0.50;0.43;;;12.50;99.90;;;;;;5074436;28;20440;-80
2023/10/24 12:37:40;;;;;;;0.50;0.50;;;12.50;99.90;;;;;;5074409;28;20456;-81
2023/10/24 12:40:10;;;;;;;0.50;0.50;;;12.50;99.90;;;;;;5074446;28;20436;-80
2023/10/24 12:42:37;;;;;;;0.93;0.80;;;12.50;99.90;;;;;;5074280;28;20504;-80
2023/10/24 12:45:06;;;;;;;1.90;0.60;;;12.50;99.90;;;;;;5074190;28;20499;-80
2023/10/24 12:47:33;;;;;;;3.43;0.60;;;12.50;99.90;;;;;;5074080;28;20484;-80
2023/10/24 12:50:00;;;;;;;0.60;0.60;;;12.40;99.90;;;;;;5073959;28;20472;-80
2023/10/24 12:52:27;;;;;;;0.50;0.50;;;12.50;99.90;;;;;;5074237;28;20433;-80